sensor_id;sensor_type;location;lat;lon;timestamp;temperature;humidity
70986;DHT22;58645;43.068;25.610;2022-10-16T00:02:00;7.90;99.90
70986;DHT22;58645;43.068;25.610;2022-10-16T00:04:26;7.80;99.90
70986;DHT22;58645;43.068;25.610;2022-10-16T00:06:52;7.80;99.90
70986;DHT22;58645;43.068;25.610;2022-10-16T00:09:17;7.70;99.90
70986;DHT22;58645;43.068;25.610;2022-10-16T00:11:43;7.70;99.90
70986;DHT22;58645;43.068;25.610;2022-10-16T00:14:14;7.70;99.90
70986;DHT22;58645;43.068;25.610;2022-10-16T00:16:40;7.70;99.90
70986;DHT22;58645;43.068;25.610;2022-10-16T00:19:06;7.70;99.90
70986;DHT22;58645;43.068;25.610;2022-10-16T00:21:33;7.70;99.90
70986;DHT22;58645;43.068;25.610;2022-10-16T00:24:07;7.50;99.90
70986;DHT22;58645;43.068;25.610;2022-10-16T00:26:35;7.50;99.90
70986;DHT22;58645;43.068;25.610;2022-10-16T00:29:01;7.60;99.90
70986;DHT22;58645;43.068;25.610;2022-10-16T00:31:27;7.50;99.90
70986;DHT22;58645;43.068;25.610;2022-10-16T00:33:53;7.40;99.90
70986;DHT22;58645;43.068;25.610;2022-10-16T00:36:21;7.40;99.90
70986;DHT22;58645;43.068;25.610;2022-10-16T00:38:53;7.30;99.90
70986;DHT22;58645;43.068;25.610;2022-10-16T00:41:21;7.30;99.90
70986;DHT22;58645;43.068;25.610;2022-10-16T00:44:01;7.30;99.90
70986;DHT22;58645;43.068;25.610;2022-10-16T00:46:39;7.20;99.90
70986;DHT22;58645;43.068;25.610;2022-10-16T00:49:16;7.20;99.90
70986;DHT22;58645;43.068;25.610;2022-10-16T00:51:49;7.10;99.90
70986;DHT22;58645;43.068;25.610;2022-10-16T00:54:22;7.10;99.90
70986;DHT22;58645;43.068;25.610;2022-10-16T00:56:49;7.10;99.90
70986;DHT22;58645;43.068;25.610;2022-10-16T00:59:24;7.00;99.90
70986;DHT22;58645;43.068;25.610;2022-10-16T01:01:52;6.90;99.90
70986;DHT22;58645;43.068;25.610;2022-10-16T01:04:18;7.00;99.90
70986;DHT22;58645;43.068;25.610;2022-10-16T01:09:44;6.90;99.90
70986;DHT22;58645;43.068;25.610;2022-10-16T01:15:01;6.90;99.90
70986;DHT22;58645;43.068;25.610;2022-10-16T01:20:31;6.80;99.90
70986;DHT22;58645;43.068;25.610;2022-10-16T01:26:08;6.80;99.90
70986;DHT22;58645;43.068;25.610;2022-10-16T01:31:19;6.70;99.90
70986;DHT22;58645;43.068;25.610;2022-10-16T01:33:56;6.60;99.90
70986;DHT22;58645;43.068;25.610;2022-10-16T01:36:28;6.60;99.90
70986;DHT22;58645;43.068;25.610;2022-10-16T01:39:01;6.60;99.90
70986;DHT22;58645;43.068;25.610;2022-10-16T01:41:37;6.60;99.90
70986;DHT22;58645;43.068;25.610;2022-10-16T01:44:20;6.60;99.90
70986;DHT22;58645;43.068;25.610;2022-10-16T01:46:50;6.50;99.90
70986;DHT22;58645;43.068;25.610;2022-10-16T01:49:17;6.50;99.90
70986;DHT22;58645;43.068;25.610;2022-10-16T01:51:47;6.50;99.90
70986;DHT22;58645;43.068;25.610;2022-10-16T01:54:16;6.50;99.90
70986;DHT22;58645;43.068;25.610;2022-10-16T01:56:42;6.40;99.90
70986;DHT22;58645;43.068;25.610;2022-10-16T01:59:14;6.40;99.90
70986;DHT22;58645;43.068;25.610;2022-10-16T02:01:45;6.40;99.90
70986;DHT22;58645;43.068;25.610;2022-10-16T02:04:21;6.30;99.90
70986;DHT22;58645;43.068;25.610;2022-10-16T02:06:49;6.30;99.90
70986;DHT22;58645;43.068;25.610;2022-10-16T02:09:15;6.20;99.90
70986;DHT22;58645;43.068;25.610;2022-10-16T02:11:43;6.20;99.90
70986;DHT22;58645;43.068;25.610;2022-10-16T02:14:08;6.10;99.90
70986;DHT22;58645;43.068;25.610;2022-10-16T02:16:38;6.00;99.90
70986;DHT22;58645;43.068;25.610;2022-10-16T02:19:05;6.00;99.90
70986;DHT22;58645;43.068;25.610;2022-10-16T02:30:28;5.90;99.90
70986;DHT22;58645;43.068;25.610;2022-10-16T02:32:56;5.90;99.90
70986;DHT22;58645;43.068;25.610;2022-10-16T02:35:24;5.80;99.90
70986;DHT22;58645;43.068;25.610;2022-10-16T02:37:50;5.80;99.90
70986;DHT22;58645;43.068;25.610;2022-10-16T02:40:17;5.80;99.90
70986;DHT22;58645;43.068;25.610;2022-10-16T02:42:43;5.80;99.90
70986;DHT22;58645;43.068;25.610;2022-10-16T02:45:10;5.80;99.90
70986;DHT22;58645;43.068;25.610;2022-10-16T02:47:37;5.80;99.90
70986;DHT22;58645;43.068;25.610;2022-10-16T02:50:03;5.80;99.90
70986;DHT22;58645;43.068;25.610;2022-10-16T02:52:29;5.80;99.90
70986;DHT22;58645;43.068;25.610;2022-10-16T02:54:55;5.80;99.90
70986;DHT22;58645;43.068;25.610;2022-10-16T02:57:20;5.80;99.90
70986;DHT22;58645;43.068;25.610;2022-10-16T02:59:46;5.70;99.90
70986;DHT22;58645;43.068;25.610;2022-10-16T03:02:12;5.70;99.90
70986;DHT22;58645;43.068;25.610;2022-10-16T03:04:38;5.60;99.90
70986;DHT22;58645;43.068;25.610;2022-10-16T03:07:04;5.60;99.90
70986;DHT22;58645;43.068;25.610;2022-10-16T03:09:30;5.60;99.90
70986;DHT22;58645;43.068;25.610;2022-10-16T03:11:55;5.50;99.90
70986;DHT22;58645;43.068;25.610;2022-10-16T03:14:21;5.50;99.90
70986;DHT22;58645;43.068;25.610;2022-10-16T03:16:47;5.60;99.90
70986;DHT22;58645;43.068;25.610;2022-10-16T03:19:13;5.60;99.90
70986;DHT22;58645;43.068;25.610;2022-10-16T03:21:38;5.50;99.90
70986;DHT22;58645;43.068;25.610;2022-10-16T03:24:04;5.50;99.90
70986;DHT22;58645;43.068;25.610;2022-10-16T03:26:30;5.40;99.90
70986;DHT22;58645;43.068;25.610;2022-10-16T03:28:56;5.40;99.90
70986;DHT22;58645;43.068;25.610;2022-10-16T03:31:22;5.30;99.90
70986;DHT22;58645;43.068;25.610;2022-10-16T03:33:47;5.20;99.90
70986;DHT22;58645;43.068;25.610;2022-10-16T03:36:13;5.10;99.90
70986;DHT22;58645;43.068;25.610;2022-10-16T03:38:39;5.10;99.90
70986;DHT22;58645;43.068;25.610;2022-10-16T03:41:05;5.00;99.90
70986;DHT22;58645;43.068;25.610;2022-10-16T03:43:33;5.00;99.90
70986;DHT22;58645;43.068;25.610;2022-10-16T03:45:59;5.00;99.90
70986;DHT22;58645;43.068;25.610;2022-10-16T03:48:24;5.00;99.90
70986;DHT22;58645;43.068;25.610;2022-10-16T03:50:50;4.90;99.90
70986;DHT22;58645;43.068;25.610;2022-10-16T03:53:17;4.90;99.90
70986;DHT22;58645;43.068;25.610;2022-10-16T03:55:43;4.90;99.90
70986;DHT22;58645;43.068;25.610;2022-10-16T03:58:09;4.90;99.90
70986;DHT22;58645;43.068;25.610;2022-10-16T04:00:35;4.80;99.90
70986;DHT22;58645;43.068;25.610;2022-10-16T04:03:01;4.80;99.90
70986;DHT22;58645;43.068;25.610;2022-10-16T04:05:27;4.80;99.90
70986;DHT22;58645;43.068;25.610;2022-10-16T04:07:52;4.70;99.90
70986;DHT22;58645;43.068;25.610;2022-10-16T04:10:18;4.80;99.90
70986;DHT22;58645;43.068;25.610;2022-10-16T04:12:44;4.70;99.90
70986;DHT22;58645;43.068;25.610;2022-10-16T04:15:10;4.70;99.90
70986;DHT22;58645;43.068;25.610;2022-10-16T04:17:36;4.70;99.90
70986;DHT22;58645;43.068;25.610;2022-10-16T04:20:02;4.70;99.90
70986;DHT22;58645;43.068;25.610;2022-10-16T04:22:28;4.70;99.90
70986;DHT22;58645;43.068;25.610;2022-10-16T04:24:54;4.70;99.90
70986;DHT22;58645;43.068;25.610;2022-10-16T04:27:19;4.70;99.90
70986;DHT22;58645;43.068;25.610;2022-10-16T04:29:45;4.70;99.90
70986;DHT22;58645;43.068;25.610;2022-10-16T04:32:11;4.70;99.90
70986;DHT22;58645;43.068;25.610;2022-10-16T04:34:39;4.70;99.90
70986;DHT22;58645;43.068;25.610;2022-10-16T04:37:05;4.70;99.90
70986;DHT22;58645;43.068;25.610;2022-10-16T04:39:31;4.60;99.90
70986;DHT22;58645;43.068;25.610;2022-10-16T04:41:56;4.60;99.90
70986;DHT22;58645;43.068;25.610;2022-10-16T04:44:22;4.60;99.90
70986;DHT22;58645;43.068;25.610;2022-10-16T04:46:51;4.60;99.90
70986;DHT22;58645;43.068;25.610;2022-10-16T04:49:17;4.60;99.90
70986;DHT22;58645;43.068;25.610;2022-10-16T04:51:42;4.60;99.90
70986;DHT22;58645;43.068;25.610;2022-10-16T04:54:09;4.60;99.90
70986;DHT22;58645;43.068;25.610;2022-10-16T04:56:35;4.60;99.90
70986;DHT22;58645;43.068;25.610;2022-10-16T04:59:08;4.60;99.90
70986;DHT22;58645;43.068;25.610;2022-10-16T05:01:34;4.60;99.90
70986;DHT22;58645;43.068;25.610;2022-10-16T05:04:00;4.60;99.90
70986;DHT22;58645;43.068;25.610;2022-10-16T05:06:25;4.70;99.90
70986;DHT22;58645;43.068;25.610;2022-10-16T05:08:51;4.70;99.90
70986;DHT22;58645;43.068;25.610;2022-10-16T05:11:17;4.80;99.90
70986;DHT22;58645;43.068;25.610;2022-10-16T05:13:42;4.80;99.90
70986;DHT22;58645;43.068;25.610;2022-10-16T05:16:08;4.90;99.90
70986;DHT22;58645;43.068;25.610;2022-10-16T05:18:34;5.00;99.90
70986;DHT22;58645;43.068;25.610;2022-10-16T05:20:59;5.20;99.90
70986;DHT22;58645;43.068;25.610;2022-10-16T05:23:25;5.40;99.90
70986;DHT22;58645;43.068;25.610;2022-10-16T05:25:55;6.20;99.90
70986;DHT22;58645;43.068;25.610;2022-10-16T05:28:27;7.30;99.90
70986;DHT22;58645;43.068;25.610;2022-10-16T05:30:53;8.30;99.90
70986;DHT22;58645;43.068;25.610;2022-10-16T05:33:23;9.00;99.90
70986;DHT22;58645;43.068;25.610;2022-10-16T05:35:50;9.70;99.90
70986;DHT22;58645;43.068;25.610;2022-10-16T05:38:18;10.30;99.90
70986;DHT22;58645;43.068;25.610;2022-10-16T05:40:51;10.90;99.90
70986;DHT22;58645;43.068;25.610;2022-10-16T05:43:17;11.60;98.30
70986;DHT22;58645;43.068;25.610;2022-10-16T05:45:43;12.30;93.50
70986;DHT22;58645;43.068;25.610;2022-10-16T05:48:08;12.70;88.40
70986;DHT22;58645;43.068;25.610;2022-10-16T05:50:34;13.30;85.00
70986;DHT22;58645;43.068;25.610;2022-10-16T05:53:00;13.80;81.80
70986;DHT22;58645;43.068;25.610;2022-10-16T05:55:26;14.40;78.80
70986;DHT22;58645;43.068;25.610;2022-10-16T05:57:54;14.90;75.80
70986;DHT22;58645;43.068;25.610;2022-10-16T06:00:20;15.60;72.80
70986;DHT22;58645;43.068;25.610;2022-10-16T06:02:46;15.90;70.40
70986;DHT22;58645;43.068;25.610;2022-10-16T06:05:11;16.20;68.20
70986;DHT22;58645;43.068;25.610;2022-10-16T06:07:37;16.30;67.50
70986;DHT22;58645;43.068;25.610;2022-10-16T06:10:04;16.70;66.60
70986;DHT22;58645;43.068;25.610;2022-10-16T06:12:30;17.20;64.40
70986;DHT22;58645;43.068;25.610;2022-10-16T06:14:55;17.50;63.20
70986;DHT22;58645;43.068;25.610;2022-10-16T06:17:21;17.80;62.60
70986;DHT22;58645;43.068;25.610;2022-10-16T06:19:47;18.00;60.90
70986;DHT22;58645;43.068;25.610;2022-10-16T06:22:12;18.20;59.60
70986;DHT22;58645;43.068;25.610;2022-10-16T06:24:38;18.40;58.60
70986;DHT22;58645;43.068;25.610;2022-10-16T06:27:04;18.50;57.80
70986;DHT22;58645;43.068;25.610;2022-10-16T06:29:30;18.80;56.70
70986;DHT22;58645;43.068;25.610;2022-10-16T06:31:56;19.00;56.80
70986;DHT22;58645;43.068;25.610;2022-10-16T06:34:21;19.20;56.20
70986;DHT22;58645;43.068;25.610;2022-10-16T06:36:47;19.50;55.60
70986;DHT22;58645;43.068;25.610;2022-10-16T06:39:13;19.80;54.60
70986;DHT22;58645;43.068;25.610;2022-10-16T06:41:39;19.90;54.50
70986;DHT22;58645;43.068;25.610;2022-10-16T06:44:05;19.90;54.40
70986;DHT22;58645;43.068;25.610;2022-10-16T06:46:32;20.00;53.60
70986;DHT22;58645;43.068;25.610;2022-10-16T06:48:58;20.30;52.80
70986;DHT22;58645;43.068;25.610;2022-10-16T06:51:24;20.00;53.40
70986;DHT22;58645;43.068;25.610;2022-10-16T06:53:55;20.10;53.40
70986;DHT22;58645;43.068;25.610;2022-10-16T06:56:26;20.30;52.80
70986;DHT22;58645;43.068;25.610;2022-10-16T06:58:53;20.70;51.80
70986;DHT22;58645;43.068;25.610;2022-10-16T07:01:21;20.90;51.30
70986;DHT22;58645;43.068;25.610;2022-10-16T07:03:47;21.40;50.30
70986;DHT22;58645;43.068;25.610;2022-10-16T07:06:14;22.00;48.70
70986;DHT22;58645;43.068;25.610;2022-10-16T07:08:42;22.20;48.10
70986;DHT22;58645;43.068;25.610;2022-10-16T07:11:13;22.50;47.80
70986;DHT22;58645;43.068;25.610;2022-10-16T07:13:41;22.90;46.80
70986;DHT22;58645;43.068;25.610;2022-10-16T07:16:12;23.40;45.80
70986;DHT22;58645;43.068;25.610;2022-10-16T07:18:39;24.10;44.50
70986;DHT22;58645;43.068;25.610;2022-10-16T07:21:15;24.30;43.70
70986;DHT22;58645;43.068;25.610;2022-10-16T07:23:42;23.90;44.60
70986;DHT22;58645;43.068;25.610;2022-10-16T07:26:08;24.20;43.70
70986;DHT22;58645;43.068;25.610;2022-10-16T07:28:35;24.30;43.50
70986;DHT22;58645;43.068;25.610;2022-10-16T07:31:02;24.50;42.80
70986;DHT22;58645;43.068;25.610;2022-10-16T07:33:28;24.60;42.80
70986;DHT22;58645;43.068;25.610;2022-10-16T07:35:54;25.10;41.80
70986;DHT22;58645;43.068;25.610;2022-10-16T07:38:21;25.30;41.30
70986;DHT22;58645;43.068;25.610;2022-10-16T07:40:47;25.70;40.60
70986;DHT22;58645;43.068;25.610;2022-10-16T07:43:13;25.80;40.00
70986;DHT22;58645;43.068;25.610;2022-10-16T07:45:49;25.80;40.20
70986;DHT22;58645;43.068;25.610;2022-10-16T07:48:16;25.90;40.30
70986;DHT22;58645;43.068;25.610;2022-10-16T07:50:43;25.50;40.50
70986;DHT22;58645;43.068;25.610;2022-10-16T07:53:09;25.30;41.20
70986;DHT22;58645;43.068;25.610;2022-10-16T07:55:35;25.30;41.60
70986;DHT22;58645;43.068;25.610;2022-10-16T07:58:01;25.40;41.00
70986;DHT22;58645;43.068;25.610;2022-10-16T08:00:27;25.30;41.00
70986;DHT22;58645;43.068;25.610;2022-10-16T08:02:52;25.70;40.70
70986;DHT22;58645;43.068;25.610;2022-10-16T08:05:18;26.10;39.90
70986;DHT22;58645;43.068;25.610;2022-10-16T08:07:49;26.50;39.70
70986;DHT22;58645;43.068;25.610;2022-10-16T08:10:17;26.50;39.30
70986;DHT22;58645;43.068;25.610;2022-10-16T08:12:43;26.70;38.30
70986;DHT22;58645;43.068;25.610;2022-10-16T08:15:09;26.90;38.70
70986;DHT22;58645;43.068;25.610;2022-10-16T08:17:35;26.90;38.30
70986;DHT22;58645;43.068;25.610;2022-10-16T08:20:01;27.00;37.80
70986;DHT22;58645;43.068;25.610;2022-10-16T08:22:27;27.10;37.90
70986;DHT22;58645;43.068;25.610;2022-10-16T08:24:53;27.50;36.90
70986;DHT22;58645;43.068;25.610;2022-10-16T08:27:18;27.40;37.10
70986;DHT22;58645;43.068;25.610;2022-10-16T08:29:44;27.40;37.20
70986;DHT22;58645;43.068;25.610;2022-10-16T08:32:10;27.00;37.30
70986;DHT22;58645;43.068;25.610;2022-10-16T08:34:35;27.30;35.90
70986;DHT22;58645;43.068;25.610;2022-10-16T08:37:01;27.40;35.70
70986;DHT22;58645;43.068;25.610;2022-10-16T08:39:27;26.80;36.10
70986;DHT22;58645;43.068;25.610;2022-10-16T08:50:32;26.60;34.40
70986;DHT22;58645;43.068;25.610;2022-10-16T08:52:59;26.60;36.50
70986;DHT22;58645;43.068;25.610;2022-10-16T08:57:53;27.10;35.00
70986;DHT22;58645;43.068;25.610;2022-10-16T09:00:19;27.20;34.20
70986;DHT22;58645;43.068;25.610;2022-10-16T09:02:53;27.40;33.90
70986;DHT22;58645;43.068;25.610;2022-10-16T09:08:19;27.40;33.30
70986;DHT22;58645;43.068;25.610;2022-10-16T09:13:55;27.20;33.00
70986;DHT22;58645;43.068;25.610;2022-10-16T09:16:30;26.70;33.30
70986;DHT22;58645;43.068;25.610;2022-10-16T09:21:36;27.30;33.00
70986;DHT22;58645;43.068;25.610;2022-10-16T09:24:24;27.50;32.30
70986;DHT22;58645;43.068;25.610;2022-10-16T09:26:50;27.40;30.70
70986;DHT22;58645;43.068;25.610;2022-10-16T09:29:18;27.50;31.40
70986;DHT22;58645;43.068;25.610;2022-10-16T09:31:45;27.80;31.10
70986;DHT22;58645;43.068;25.610;2022-10-16T09:34:33;27.60;30.80
70986;DHT22;58645;43.068;25.610;2022-10-16T09:37:01;27.10;30.60
70986;DHT22;58645;43.068;25.610;2022-10-16T09:39:28;27.60;30.90
70986;DHT22;58645;43.068;25.610;2022-10-16T09:41:55;27.70;29.70
70986;DHT22;58645;43.068;25.610;2022-10-16T09:47:19;27.10;31.00
70986;DHT22;58645;43.068;25.610;2022-10-16T09:50:36;27.50;30.40
70986;DHT22;58645;43.068;25.610;2022-10-16T09:52:43;28.20;29.60
70986;DHT22;58645;43.068;25.610;2022-10-16T09:55:16;28.00;28.80
70986;DHT22;58645;43.068;25.610;2022-10-16T09:57:53;26.70;29.90
70986;DHT22;58645;43.068;25.610;2022-10-16T10:00:20;26.50;31.60
70986;DHT22;58645;43.068;25.610;2022-10-16T10:02:46;27.50;30.80
70986;DHT22;58645;43.068;25.610;2022-10-16T10:05:24;27.50;29.10
70986;DHT22;58645;43.068;25.610;2022-10-16T10:08:02;27.70;28.80
70986;DHT22;58645;43.068;25.610;2022-10-16T10:10:41;27.60;30.00
70986;DHT22;58645;43.068;25.610;2022-10-16T10:13:20;28.00;28.80
70986;DHT22;58645;43.068;25.610;2022-10-16T10:15:47;27.80;30.00
70986;DHT22;58645;43.068;25.610;2022-10-16T10:18:18;28.20;28.40
70986;DHT22;58645;43.068;25.610;2022-10-16T10:20:45;28.20;28.90
70986;DHT22;58645;43.068;25.610;2022-10-16T10:23:25;28.50;28.60
70986;DHT22;58645;43.068;25.610;2022-10-16T10:28:51;28.00;28.50
70986;DHT22;58645;43.068;25.610;2022-10-16T10:31:29;28.70;28.20
70986;DHT22;58645;43.068;25.610;2022-10-16T10:34:30;28.60;27.70
70986;DHT22;58645;43.068;25.610;2022-10-16T10:37:11;28.40;28.10
70986;DHT22;58645;43.068;25.610;2022-10-16T10:39:47;28.30;28.00
70986;DHT22;58645;43.068;25.610;2022-10-16T10:45:02;28.90;27.10
70986;DHT22;58645;43.068;25.610;2022-10-16T11:09:34;28.30;28.50
70986;DHT22;58645;43.068;25.610;2022-10-16T11:12:25;28.50;27.70
70986;DHT22;58645;43.068;25.610;2022-10-16T11:17:41;28.90;27.80
70986;DHT22;58645;43.068;25.610;2022-10-16T11:20:14;28.40;28.10
70986;DHT22;58645;43.068;25.610;2022-10-16T11:23:11;28.50;28.60
70986;DHT22;58645;43.068;25.610;2022-10-16T11:25:40;28.30;28.40
70986;DHT22;58645;43.068;25.610;2022-10-16T11:28:18;28.50;27.70
70986;DHT22;58645;43.068;25.610;2022-10-16T11:30:54;27.60;28.60
70986;DHT22;58645;43.068;25.610;2022-10-16T11:36:26;27.50;29.60
70986;DHT22;58645;43.068;25.610;2022-10-16T11:39:19;27.80;29.60
70986;DHT22;58645;43.068;25.610;2022-10-16T11:42:03;27.90;28.90
70986;DHT22;58645;43.068;25.610;2022-10-16T11:50:28;27.90;29.60
70986;DHT22;58645;43.068;25.610;2022-10-16T11:55:40;28.40;28.40
70986;DHT22;58645;43.068;25.610;2022-10-16T12:11:46;26.30;32.80
70986;DHT22;58645;43.068;25.610;2022-10-16T12:16:58;25.10;34.60
70986;DHT22;58645;43.068;25.610;2022-10-16T12:19:27;24.50;35.80
70986;DHT22;58645;43.068;25.610;2022-10-16T12:21:59;23.80;37.10
70986;DHT22;58645;43.068;25.610;2022-10-16T12:24:39;23.00;38.60
70986;DHT22;58645;43.068;25.610;2022-10-16T12:27:25;22.50;39.90
70986;DHT22;58645;43.068;25.610;2022-10-16T12:30:01;22.10;41.20
70986;DHT22;58645;43.068;25.610;2022-10-16T12:32:35;21.70;42.00
70986;DHT22;58645;43.068;25.610;2022-10-16T12:35:03;21.20;42.70
70986;DHT22;58645;43.068;25.610;2022-10-16T12:37:37;20.80;43.50
70986;DHT22;58645;43.068;25.610;2022-10-16T12:40:29;20.60;44.60
70986;DHT22;58645;43.068;25.610;2022-10-16T12:42:56;20.50;45.10
70986;DHT22;58645;43.068;25.610;2022-10-16T12:45:31;20.40;45.10
70986;DHT22;58645;43.068;25.610;2022-10-16T12:47:59;20.20;45.00
70986;DHT22;58645;43.068;25.610;2022-10-16T12:50:38;20.10;45.40
70986;DHT22;58645;43.068;25.610;2022-10-16T12:53:21;19.90;45.70
70986;DHT22;58645;43.068;25.610;2022-10-16T12:56:09;19.80;45.60
70986;DHT22;58645;43.068;25.610;2022-10-16T13:04:45;19.30;47.60
70986;DHT22;58645;43.068;25.610;2022-10-16T13:10:17;19.30;47.90
70986;DHT22;58645;43.068;25.610;2022-10-16T13:21:35;18.90;48.40
70986;DHT22;58645;43.068;25.610;2022-10-16T13:27:01;18.90;48.90
70986;DHT22;58645;43.068;25.610;2022-10-16T13:29:32;18.80;48.40
70986;DHT22;58645;43.068;25.610;2022-10-16T13:32:00;18.70;48.40
70986;DHT22;58645;43.068;25.610;2022-10-16T13:34:27;18.70;49.10
70986;DHT22;58645;43.068;25.610;2022-10-16T13:36:53;18.60;48.80
70986;DHT22;58645;43.068;25.610;2022-10-16T13:39:23;18.60;48.40
70986;DHT22;58645;43.068;25.610;2022-10-16T13:42:12;18.60;48.20
70986;DHT22;58645;43.068;25.610;2022-10-16T13:44:47;18.60;48.70
70986;DHT22;58645;43.068;25.610;2022-10-16T13:47:28;18.40;48.50
70986;DHT22;58645;43.068;25.610;2022-10-16T13:50:02;18.40;48.50
70986;DHT22;58645;43.068;25.610;2022-10-16T13:52:29;18.40;48.90
70986;DHT22;58645;43.068;25.610;2022-10-16T13:54:55;18.40;48.60
70986;DHT22;58645;43.068;25.610;2022-10-16T13:57:23;18.40;49.30
70986;DHT22;58645;43.068;25.610;2022-10-16T13:59:50;18.30;48.90
70986;DHT22;58645;43.068;25.610;2022-10-16T14:02:32;18.30;49.00
70986;DHT22;58645;43.068;25.610;2022-10-16T14:05:04;18.30;49.50
70986;DHT22;58645;43.068;25.610;2022-10-16T14:07:32;18.20;49.40
70986;DHT22;58645;43.068;25.610;2022-10-16T14:10:06;18.20;49.60
70986;DHT22;58645;43.068;25.610;2022-10-16T14:12:45;18.10;49.50
70986;DHT22;58645;43.068;25.610;2022-10-16T14:15:19;18.00;49.00
70986;DHT22;58645;43.068;25.610;2022-10-16T14:17:48;18.10;49.90
70986;DHT22;58645;43.068;25.610;2022-10-16T14:20:16;18.00;49.80
70986;DHT22;58645;43.068;25.610;2022-10-16T14:22:43;17.90;50.30
70986;DHT22;58645;43.068;25.610;2022-10-16T14:28:23;17.90;50.20
70986;DHT22;58645;43.068;25.610;2022-10-16T14:30:54;17.90;49.90
70986;DHT22;58645;43.068;25.610;2022-10-16T14:33:23;17.80;50.20
70986;DHT22;58645;43.068;25.610;2022-10-16T14:36:04;17.80;50.20
70986;DHT22;58645;43.068;25.610;2022-10-16T14:38:31;17.70;51.00
70986;DHT22;58645;43.068;25.610;2022-10-16T14:40:59;17.70;50.90
70986;DHT22;58645;43.068;25.610;2022-10-16T14:43:40;17.70;50.40
70986;DHT22;58645;43.068;25.610;2022-10-16T14:48:42;17.60;51.10
70986;DHT22;58645;43.068;25.610;2022-10-16T14:51:14;17.50;51.00
70986;DHT22;58645;43.068;25.610;2022-10-16T14:53:40;17.50;50.60
70986;DHT22;58645;43.068;25.610;2022-10-16T14:56:21;17.40;51.10
70986;DHT22;58645;43.068;25.610;2022-10-16T14:58:49;17.50;50.30
70986;DHT22;58645;43.068;25.610;2022-10-16T15:01:15;17.50;50.20
70986;DHT22;58645;43.068;25.610;2022-10-16T15:03:41;17.40;50.60
70986;DHT22;58645;43.068;25.610;2022-10-16T15:06:11;17.30;50.70
70986;DHT22;58645;43.068;25.610;2022-10-16T15:08:38;17.20;51.00
70986;DHT22;58645;43.068;25.610;2022-10-16T15:11:04;17.10;51.10
70986;DHT22;58645;43.068;25.610;2022-10-16T15:13:30;17.00;51.30
70986;DHT22;58645;43.068;25.610;2022-10-16T15:15:56;16.90;52.10
70986;DHT22;58645;43.068;25.610;2022-10-16T15:18:22;16.80;52.80
70986;DHT22;58645;43.068;25.610;2022-10-16T15:20:51;16.70;53.50
70986;DHT22;58645;43.068;25.610;2022-10-16T15:23:19;16.60;53.50
70986;DHT22;58645;43.068;25.610;2022-10-16T15:25:55;16.50;53.80
70986;DHT22;58645;43.068;25.610;2022-10-16T15:28:23;16.30;53.90
70986;DHT22;58645;43.068;25.610;2022-10-16T15:30:50;16.30;54.10
70986;DHT22;58645;43.068;25.610;2022-10-16T15:33:19;16.20;54.40
70986;DHT22;58645;43.068;25.610;2022-10-16T15:35:49;16.10;54.70
70986;DHT22;58645;43.068;25.610;2022-10-16T15:38:17;15.90;55.30
70986;DHT22;58645;43.068;25.610;2022-10-16T15:40:44;15.90;55.60
70986;DHT22;58645;43.068;25.610;2022-10-16T15:43:09;15.70;55.10
70986;DHT22;58645;43.068;25.610;2022-10-16T15:45:35;15.60;55.00
70986;DHT22;58645;43.068;25.610;2022-10-16T15:48:01;15.60;55.70
70986;DHT22;58645;43.068;25.610;2022-10-16T15:50:27;15.50;56.10
70986;DHT22;58645;43.068;25.610;2022-10-16T15:52:53;15.40;56.10
70986;DHT22;58645;43.068;25.610;2022-10-16T15:55:19;15.30;56.50
70986;DHT22;58645;43.068;25.610;2022-10-16T15:57:45;15.30;57.20
70986;DHT22;58645;43.068;25.610;2022-10-16T16:00:13;15.20;56.80
70986;DHT22;58645;43.068;25.610;2022-10-16T16:02:41;15.10;57.50
70986;DHT22;58645;43.068;25.610;2022-10-16T16:05:08;15.00;57.40
70986;DHT22;58645;43.068;25.610;2022-10-16T16:07:38;15.00;58.10
70986;DHT22;58645;43.068;25.610;2022-10-16T16:10:07;14.90;58.50
70986;DHT22;58645;43.068;25.610;2022-10-16T16:12:34;14.80;58.70
70986;DHT22;58645;43.068;25.610;2022-10-16T16:14:59;14.70;58.30
70986;DHT22;58645;43.068;25.610;2022-10-16T16:17:25;14.70;58.70
70986;DHT22;58645;43.068;25.610;2022-10-16T16:19:51;14.60;58.90
70986;DHT22;58645;43.068;25.610;2022-10-16T16:22:17;14.60;59.90
70986;DHT22;58645;43.068;25.610;2022-10-16T16:24:43;14.50;60.40
70986;DHT22;58645;43.068;25.610;2022-10-16T16:27:09;14.40;60.40
70986;DHT22;58645;43.068;25.610;2022-10-16T16:29:35;14.30;61.10
70986;DHT22;58645;43.068;25.610;2022-10-16T16:32:01;14.20;61.00
70986;DHT22;58645;43.068;25.610;2022-10-16T16:34:27;14.10;61.10
70986;DHT22;58645;43.068;25.610;2022-10-16T16:36:54;14.10;61.40
70986;DHT22;58645;43.068;25.610;2022-10-16T16:39:20;14.00;61.40
70986;DHT22;58645;43.068;25.610;2022-10-16T16:41:46;14.00;61.40
70986;DHT22;58645;43.068;25.610;2022-10-16T16:44:13;13.90;61.40
70986;DHT22;58645;43.068;25.610;2022-10-16T16:46:40;13.90;61.80
70986;DHT22;58645;43.068;25.610;2022-10-16T16:49:06;13.90;62.10
70986;DHT22;58645;43.068;25.610;2022-10-16T16:51:32;13.80;62.30
70986;DHT22;58645;43.068;25.610;2022-10-16T16:53:59;13.80;62.50
70986;DHT22;58645;43.068;25.610;2022-10-16T16:56:25;13.80;62.70
70986;DHT22;58645;43.068;25.610;2022-10-16T16:58:54;13.70;63.20
70986;DHT22;58645;43.068;25.610;2022-10-16T17:01:22;13.60;63.50
70986;DHT22;58645;43.068;25.610;2022-10-16T17:03:51;13.50;63.70
70986;DHT22;58645;43.068;25.610;2022-10-16T17:06:18;13.40;64.40
70986;DHT22;58645;43.068;25.610;2022-10-16T17:08:44;13.30;64.80
70986;DHT22;58645;43.068;25.610;2022-10-16T17:11:19;13.30;65.20
70986;DHT22;58645;43.068;25.610;2022-10-16T17:13:45;13.20;65.60
70986;DHT22;58645;43.068;25.610;2022-10-16T17:16:12;13.10;66.10
70986;DHT22;58645;43.068;25.610;2022-10-16T17:18:38;13.00;66.00
70986;DHT22;58645;43.068;25.610;2022-10-16T17:21:06;12.90;67.20
70986;DHT22;58645;43.068;25.610;2022-10-16T17:23:34;12.90;67.80
70986;DHT22;58645;43.068;25.610;2022-10-16T17:26:08;12.80;67.90
70986;DHT22;58645;43.068;25.610;2022-10-16T17:28:34;12.70;67.80
70986;DHT22;58645;43.068;25.610;2022-10-16T17:31:11;12.70;69.10
70986;DHT22;58645;43.068;25.610;2022-10-16T17:33:37;12.60;69.40
70986;DHT22;58645;43.068;25.610;2022-10-16T17:36:04;12.50;69.60
70986;DHT22;58645;43.068;25.610;2022-10-16T17:38:29;12.50;70.10
70986;DHT22;58645;43.068;25.610;2022-10-16T17:40:55;12.40;70.30
70986;DHT22;58645;43.068;25.610;2022-10-16T17:43:21;12.40;69.40